Time;durP1;ratioP1;P1;durP2;ratioP2;P2;SDS_P1;SDS_P2;PMS_P1;PMS_P2;Temp;Humidity;BMP_temperature;BMP_pressure;BME280_temperature;BME280_humidity;BME280_pressure;Samples;Min_cycle;Max_cycle;Signal;HPM_P1;HPM_P2
2023/07/06 00:02:04;;;;;;;9.00;2.42;;;;;;;-144.47;51.77;52595.91;5041228;28;20112;-72
2023/07/06 00:04:29;;;;;;;8.93;2.60;;;;;;;-144.47;51.49;52605.84;5051180;28;20039;-70
2023/07/06 00:06:55;;;;;;;10.30;2.47;;;;;;;-144.47;51.35;52576.06;5052167;28;20029;-71
2023/07/06 00:09:21;;;;;;;7.18;2.40;;;;;;;-144.47;51.41;52605.84;5048451;28;20027;-71
2023/07/06 00:11:47;;;;;;;11.95;2.78;;;;;;;-144.47;51.46;52587.97;5047078;28;20021;-68
2023/07/06 00:14:14;;;;;;;12.90;2.97;;;;;;;-144.47;51.21;52584.00;5050254;28;20037;-72
2023/07/06 00:16:41;;;;;;;6.18;2.38;;;;;;;-144.47;51.27;52576.06;5051244;28;20025;-70
2023/07/06 00:19:08;;;;;;;8.88;2.40;;;;;;;-144.47;51.54;52601.88;5050899;28;20025;-70
2023/07/06 00:21:34;;;;;;;9.27;2.42;;;;;;;-144.47;51.71;52599.88;5051752;28;20107;-70
2023/07/06 00:24:00;;;;;;;10.18;2.75;;;;;;;-144.47;51.86;52574.06;5050142;28;20029;-72
2023/07/06 00:26:25;;;;;;;10.45;2.45;;;;;;;-144.47;51.77;52613.78;5032836;28;20032;-70
2023/07/06 00:28:53;;;;;;;7.95;2.38;;;;;;;-144.47;51.90;52595.91;5050674;28;20029;-68
2023/07/06 00:32:03;;;;;;;6.43;2.03;;;;;;;-144.47;51.97;52587.97;5077724;22;20581;-67
2023/07/06 00:34:11;;;;;;;8.40;2.40;;;;;;;-144.47;52.07;52617.75;5035999;28;20068;-67
2023/07/06 00:36:37;;;;;;;7.75;2.20;;;;;;;-144.47;52.14;52597.91;5071652;28;20043;-68
2023/07/06 00:39:03;;;;;;;10.50;2.60;;;;;;;-144.47;51.99;52591.94;5045457;28;20394;-68
2023/07/06 00:41:30;;;;;;;7.50;2.17;;;;;;;-144.47;51.74;52603.84;5052744;28;20397;-68
2023/07/06 00:43:56;;;;;;;5.85;2.28;;;;;;;-144.47;51.72;52599.88;5043202;28;20024;-69
2023/07/06 00:46:29;;;;;;;6.03;2.20;;;;;;;-144.47;51.73;52613.78;5061404;28;20064;-68
2023/07/06 00:48:56;;;;;;;5.63;2.33;;;;;;;-144.47;51.54;52585.97;5033419;28;20028;-68
2023/07/06 00:51:34;;;;;;;8.35;2.17;;;;;;;-144.47;51.52;52589.97;5054164;28;20020;-68
2023/07/06 00:54:05;;;;;;;4.13;1.95;;;;;;;-144.47;51.34;52591.94;5045410;28;20032;-68
2023/07/06 00:56:37;;;;;;;6.47;2.40;;;;;;;-144.47;51.50;52597.91;5045359;28;20119;-67
2023/07/06 00:59:04;;;;;;;7.97;2.30;;;;;;;-144.47;51.49;52593.94;5046878;28;20046;-68
2023/07/06 01:01:32;;;;;;;6.43;2.45;;;;;;;-144.47;51.59;52593.94;5053011;28;20082;-66
2023/07/06 01:04:01;;;;;;;6.38;2.10;;;;;;;-144.47;51.60;52609.81;5046906;28;20044;-70
2023/07/06 01:06:30;;;;;;;6.18;2.10;;;;;;;-144.47;51.48;52589.97;5065532;28;20050;-68
2023/07/06 01:08:57;;;;;;;6.88;2.45;;;;;;;-144.47;51.73;52597.91;5036930;28;20017;-66
2023/07/06 01:11:24;;;;;;;5.20;2.08;;;;;;;-144.47;51.96;52601.88;5034583;28;20102;-69
2023/07/06 01:13:52;;;;;;;6.50;3.13;;;;;;;-144.47;51.99;52582.00;5038802;28;20160;-68
2023/07/06 01:16:43;;;;;;;10.77;1.97;;;;;;;-144.47;52.09;52582.00;5046590;28;20037;-65
2023/07/06 01:19:44;;;;;;;5.75;1.88;;;;;;;-144.47;52.20;52572.09;5030611;28;20036;-68
2023/07/06 01:22:27;;;;;;;7.22;1.98;;;;;;;-144.47;52.38;52597.91;5052935;28;20090;-68
2023/07/06 01:25:11;;;;;;;4.30;1.80;;;;;;;-144.47;52.57;52591.94;5063231;28;20111;-68
2023/07/06 01:27:55;;;;;;;5.97;2.42;;;;;;;-144.47;52.61;52566.13;5063609;28;20406;-68
2023/07/06 01:30:49;;;;;;;7.00;2.08;;;;;;;-144.47;52.64;52564.13;5061655;28;20028;-68
2023/07/06 01:33:21;;;;;;;4.68;1.77;;;;;;;-144.47;52.81;52591.94;4977700;28;20050;-65
2023/07/06 01:36:10;;;;;;;8.43;2.25;;;;;;;-144.47;52.91;52589.97;5068785;28;20021;-68
2023/07/06 01:38:37;;;;;;;12.38;2.50;;;;;;;-144.47;53.16;52580.03;5054438;28;20078;-67
2023/07/06 01:41:03;;;;;;;3.75;1.55;;;;;;;-144.47;53.46;52572.09;5049817;28;20028;-68
2023/07/06 01:43:28;;;;;;;7.13;2.20;;;;;;;-144.47;53.58;52599.88;5035462;28;20100;-68
2023/07/06 01:45:54;;;;;;;4.85;1.85;;;;;;;-144.47;53.88;52582.00;5054965;28;20020;-68
2023/07/06 01:48:20;;;;;;;7.55;1.83;;;;;;;-144.47;54.08;52558.19;5062542;28;20070;-68
2023/07/06 01:51:06;;;;;;;5.28;1.65;;;;;;;-144.47;54.07;52591.94;5049550;28;20026;-67
2023/07/06 01:53:56;;;;;;;3.55;1.40;;;;;;;-144.47;54.30;52599.88;5064865;28;20032;-65
2023/07/06 01:56:28;;;;;;;15.82;2.13;;;;;;;-144.47;54.37;52585.97;5044078;28;20070;-68
2023/07/06 01:59:03;;;;;;;4.80;2.17;;;;;;;-144.47;54.62;52574.06;5043764;28;20032;-68
2023/07/06 02:01:37;;;;;;;6.93;2.08;;;;;;;-144.47;54.81;52562.16;5043676;28;20055;-65
2023/07/06 02:04:07;;;;;;;3.80;1.77;;;;;;;-144.47;54.97;52585.97;5038841;28;20030;-70
2023/07/06 02:06:33;;;;;;;4.63;1.95;;;;;;;-144.47;55.22;52601.88;5046091;28;20028;-67
2023/07/06 02:08:59;;;;;;;9.02;1.73;;;;;;;-144.47;55.31;52595.91;5042482;28;20023;-66
2023/07/06 02:11:24;;;;;;;11.18;2.35;;;;;;;-144.47;55.39;52576.06;5032782;28;20383;-67
2023/07/06 02:13:50;;;;;;;6.57;1.75;;;;;;;-144.47;55.77;52603.84;5020852;28;20044;-66
2023/07/06 02:16:16;;;;;;;6.20;2.15;;;;;;;-144.47;56.01;52607.84;5047583;28;20104;-67
2023/07/06 02:18:42;;;;;;;4.88;1.88;;;;;;;-144.47;55.98;52603.84;5060036;28;20036;-67
2023/07/06 02:21:09;;;;;;;4.55;1.80;;;;;;;-144.47;56.17;52611.81;5068512;28;20044;-67
2023/07/06 02:23:34;;;;;;;4.78;1.90;;;;;;;-144.47;56.26;52580.03;5061445;28;20756;-66
2023/07/06 02:26:00;;;;;;;6.25;1.70;;;;;;;-144.47;56.36;52609.81;5076394;28;20032;-66
2023/07/06 02:28:25;;;;;;;6.35;2.10;;;;;;;-144.47;56.45;52574.06;5053997;28;20032;-67
2023/07/06 02:30:54;;;;;;;5.30;2.03;;;;;;;-144.47;56.76;52591.94;5044198;28;20035;-66
2023/07/06 02:33:20;;;;;;;4.28;1.83;;;;;;;-144.47;57.23;52587.97;5054848;28;20111;-67
2023/07/06 02:35:46;;;;;;;7.25;2.22;;;;;;;-144.47;57.45;52639.59;5063286;28;20033;-69
2023/07/06 02:38:16;;;;;;;10.38;2.25;;;;;;;-144.47;57.91;52576.06;5059619;28;20048;-68
2023/07/06 02:40:42;;;;;;;7.85;1.88;;;;;;;-144.47;58.31;52599.88;5065513;28;20035;-68
2023/07/06 02:43:07;;;;;;;12.02;2.30;;;;;;;-144.47;58.65;52597.91;5048740;28;20724;-66
2023/07/06 02:45:33;;;;;;;3.80;1.70;;;;;;;-144.47;58.83;52597.91;5065700;28;20030;-67
2023/07/06 02:47:59;;;;;;;5.15;2.03;;;;;;;-144.47;58.98;52609.81;5042377;28;20121;-68
2023/07/06 02:50:25;;;;;;;4.68;1.85;;;;;;;-144.47;58.95;52607.84;5052764;28;20070;-69
2023/07/06 02:52:51;;;;;;;5.47;2.15;;;;;;;-144.47;59.18;52593.94;5073886;28;20028;-69
2023/07/06 02:55:16;;;;;;;7.15;2.33;;;;;;;-144.47;59.20;52595.91;5046520;28;20108;-65
2023/07/06 02:57:42;;;;;;;4.47;1.95;;;;;;;-144.47;59.39;52607.84;5073423;28;20016;-68
2023/07/06 03:00:12;;;;;;;5.10;2.03;;;;;;;-144.47;59.47;52587.97;5051173;28;20071;-67
2023/07/06 03:02:37;;;;;;;7.57;1.88;;;;;;;-144.47;59.68;52609.81;5044227;28;20055;-67
2023/07/06 03:05:04;;;;;;;6.95;1.85;;;;;;;-144.47;59.85;52601.88;5029563;28;20025;-67
2023/07/06 03:07:33;;;;;;;10.38;2.30;;;;;;;-144.47;60.17;52564.13;5043551;28;20096;-68
2023/07/06 03:10:00;;;;;;;;;;;;;;;-144.47;60.39;52629.69;5058655;28;20039;-68
2023/07/06 03:12:25;;;;;;;5.55;1.90;;;;;;;-144.47;60.75;52601.88;5044903;28;19999;-68
2023/07/06 03:14:50;;;;;;;7.70;3.67;;;;;;;-144.47;60.89;52603.84;5064077;28;20031;-69
2023/07/06 03:17:16;;;;;;;5.28;2.08;;;;;;;-144.47;61.24;52625.72;5045250;28;20064;-69
2023/07/06 03:19:41;;;;;;;6.15;2.42;;;;;;;-144.47;61.33;52611.81;5070669;28;20029;-65
2023/07/06 03:22:07;;;;;;;4.10;1.83;;;;;;;-144.47;61.45;52621.72;5061508;28;20017;-68
2023/07/06 03:24:33;;;;;;;4.30;1.90;;;;;;;-144.47;61.31;52609.81;5046617;28;20025;-70
2023/07/06 03:27:01;;;;;;;5.10;2.03;;;;;;;-144.47;61.59;52607.84;5044748;28;20016;-68
2023/07/06 03:29:26;;;;;;;7.90;2.20;;;;;;;-144.47;61.63;52617.75;5047387;28;20033;-68
2023/07/06 03:31:53;;;;;;;3.40;1.73;;;;;;;-144.47;61.68;52589.97;5051650;28;20453;-66
2023/07/06 03:34:20;;;;;;;5.35;2.13;;;;;;;-144.47;61.54;52609.81;5051546;28;20034;-67
2023/07/06 03:36:45;;;;;;;12.63;2.10;;;;;;;-144.47;61.76;52605.84;5052844;28;20055;-67
2023/07/06 03:39:11;;;;;;;5.68;1.90;;;;;;;-144.47;61.68;52613.78;5057122;28;20620;-68
2023/07/06 03:41:38;;;;;;;5.05;1.80;;;;;;;-144.47;61.60;52587.97;5031598;28;20036;-69
2023/07/06 03:44:05;;;;;;;6.18;1.73;;;;;;;-144.47;61.81;52619.75;5036747;28;20036;-70
2023/07/06 03:46:32;;;;;;;5.38;1.83;;;;;;;-144.47;61.85;52617.75;5040427;28;20080;-67
2023/07/06 03:48:57;;;;;;;6.40;2.35;;;;;;;-144.47;62.06;52609.81;5055555;28;20043;-69
2023/07/06 03:51:23;;;;;;;4.40;2.08;;;;;;;-144.47;62.34;52619.75;5071941;28;20458;-69
2023/07/06 03:53:48;;;;;;;7.13;1.95;;;;;;;-144.47;62.45;52589.97;5039260;28;20025;-69
2023/07/06 03:56:16;;;;;;;4.72;1.90;;;;;;;-144.47;62.41;52599.88;5064114;28;20135;-66
2023/07/06 03:58:42;;;;;;;5.18;1.83;;;;;;;-144.47;62.55;52613.78;5027038;28;20020;-67
2023/07/06 04:01:08;;;;;;;7.13;1.65;;;;;;;-144.47;62.78;52641.59;5048121;28;20541;-67
2023/07/06 04:03:33;;;;;;;5.80;2.15;;;;;;;-144.47;63.01;52597.91;5043757;28;20037;-67
2023/07/06 04:06:01;;;;;;;10.93;2.20;;;;;;;-144.47;63.07;52621.72;5052267;28;20079;-67
2023/07/06 04:08:26;;;;;;;5.07;2.13;;;;;;;-144.47;63.28;52613.78;5047886;28;20032;-67
2023/07/06 04:10:52;;;;;;;8.32;2.05;;;;;;;-144.47;63.15;52637.63;5029969;28;20031;-65
2023/07/06 04:13:17;;;;;;;7.35;2.30;;;;;;;-144.47;63.41;52631.66;5040503;28;20032;-67
2023/07/06 04:15:46;;;;;;;6.20;1.95;;;;;;;-144.47;63.28;52611.81;5051246;28;20048;-68
2023/07/06 04:18:11;;;;;;;8.73;2.17;;;;;;;-144.47;63.23;52587.97;5050982;28;20421;-69
2023/07/06 04:20:37;;;;;;;9.80;2.40;;;;;;;-144.47;63.63;52615.78;5040597;28;20499;-68
2023/07/06 04:23:04;;;;;;;8.65;2.15;;;;;;;-144.47;63.43;52615.78;5047807;28;20482;-68
2023/07/06 04:25:32;;;;;;;4.68;2.13;;;;;;;-144.47;63.46;52617.75;5051298;28;20028;-66
2023/07/06 04:28:03;;;;;;;6.18;2.45;;;;;;;-144.47;63.70;52633.66;5056036;28;20115;-68
2023/07/06 04:30:33;;;;;;;4.38;1.90;;;;;;;-144.47;63.58;52615.78;5059856;28;20033;-67
2023/07/06 04:32:59;;;;;;;6.47;2.10;;;;;;;-144.47;63.00;52625.72;5059976;28;20024;-68
2023/07/06 04:35:26;;;;;;;6.13;2.17;;;;;;;-144.47;62.35;52613.78;5047113;28;20041;-67
2023/07/06 04:37:52;;;;;;;6.18;2.45;;;;;;;-144.47;62.23;52601.88;5052115;28;20063;-68
2023/07/06 04:40:20;;;;;;;6.85;1.90;;;;;;;-144.47;62.39;52587.97;5051750;28;20115;-68
2023/07/06 04:42:48;;;;;;;12.77;2.10;;;;;;;-144.47;62.11;52605.84;5046230;28;20036;-69
2023/07/06 04:45:15;;;;;;;6.93;2.37;;;;;;;-144.47;62.35;52595.91;5053311;28;20032;-68
2023/07/06 04:47:42;;;;;;;5.38;2.15;;;;;;;-144.47;62.24;52613.78;5053960;28;20103;-69
2023/07/06 04:50:22;;;;;;;8.30;1.90;;;;;;;-144.47;62.59;52589.97;5066195;28;20020;-69
2023/07/06 04:52:53;;;;;;;8.48;2.10;;;;;;;-144.47;62.70;52597.91;5056880;28;20016;-68
2023/07/06 04:55:22;;;;;;;6.65;2.08;;;;;;;-144.47;62.33;52589.97;5070983;28;20032;-68
2023/07/06 04:57:50;;;;;;;6.88;2.17;;;;;;;-144.47;62.27;52621.72;5045229;28;20039;-69
2023/07/06 05:00:24;;;;;;;5.78;2.10;;;;;;;-144.47;62.61;52580.03;5070789;28;20529;-64
2023/07/06 05:02:53;;;;;;;5.63;1.92;;;;;;;-144.47;62.76;52607.84;5046430;28;20057;-70
2023/07/06 05:05:20;;;;;;;8.55;2.55;;;;;;;-144.47;62.68;52591.94;5061836;28;20410;-70
2023/07/06 05:07:46;;;;;;;3.53;1.77;;;;;;;-144.47;62.39;52597.91;5057473;28;20026;-68
2023/07/06 05:10:12;;;;;;;5.70;1.92;;;;;;;-144.47;62.25;52576.06;5047357;28;20363;-69
2023/07/06 05:12:39;;;;;;;8.18;1.85;;;;;;;-144.47;62.20;52578.03;5050762;28;20506;-71
2023/07/06 05:15:05;;;;;;;6.03;1.83;;;;;;;-144.47;61.76;52599.88;5053916;28;20028;-69
2023/07/06 05:17:31;;;;;;;6.70;1.70;;;;;;;-144.47;62.41;52584.00;5032498;28;20410;-68
2023/07/06 05:19:58;;;;;;;4.97;1.48;;;;;;;-144.47;62.25;52595.91;5057305;28;20431;-67
2023/07/06 05:22:23;;;;;;;6.28;1.65;;;;;;;-144.47;62.06;52591.94;5054142;28;20033;-72
2023/07/06 05:24:49;;;;;;;5.00;1.65;;;;;;;-144.47;62.48;52607.84;5053900;28;20036;-70
2023/07/06 05:27:15;;;;;;;5.13;2.15;;;;;;;-144.47;61.54;52599.88;5062466;28;20032;-71
2023/07/06 05:29:40;;;;;;;5.57;1.67;;;;;;;-144.47;61.10;52595.91;5063040;28;20117;-70
2023/07/06 05:32:07;;;;;;;7.88;1.83;;;;;;;-144.47;60.98;52597.91;5059422;28;20580;-69
2023/07/06 05:34:33;;;;;;;4.50;1.80;;;;;;;-144.47;61.24;52603.84;5054880;28;20474;-71
2023/07/06 05:36:58;;;;;;;6.10;1.77;;;;;;;-144.47;61.09;52621.72;5056750;28;20021;-70
2023/07/06 05:39:24;;;;;;;6.50;1.70;;;;;;;-144.47;61.34;52601.88;5047476;28;20027;-69
2023/07/06 05:41:49;;;;;;;6.07;1.80;;;;;;;-144.47;60.25;52570.09;5051160;28;20024;-70
2023/07/06 05:44:15;;;;;;;6.47;1.23;;;;;;;-144.47;59.31;52601.88;5055537;28;20039;-70
2023/07/06 05:46:40;;;;;;;9.07;2.05;;;;;;;-144.47;59.20;52611.81;5052554;28;20494;-69
2023/07/06 05:49:05;;;;;;;6.35;1.90;;;;;;;-144.47;59.38;52582.00;5050024;28;21530;-69
2023/07/06 05:51:31;;;;;;;17.52;1.92;;;;;;;-144.47;58.68;52615.78;5039759;28;20167;-68
2023/07/06 05:53:57;;;;;;;5.85;1.60;;;;;;;-144.47;57.73;52585.97;5049529;28;20029;-66
2023/07/06 05:56:23;;;;;;;6.90;1.70;;;;;;;-144.47;57.34;52607.84;5050536;28;20045;-68
2023/07/06 05:58:49;;;;;;;2.90;1.40;;;;;;;-144.47;56.57;52587.97;5053337;28;20397;-67
2023/07/06 06:01:14;;;;;;;8.38;1.65;;;;;;;-144.47;56.55;52597.91;5069980;28;20080;-71
2023/07/06 06:03:40;;;;;;;3.65;1.30;;;;;;;-144.47;55.97;52587.97;5060856;28;20036;-70
2023/07/06 06:06:07;;;;;;;5.85;1.83;;;;;;;-144.47;56.13;52597.91;5043098;28;20025;-65
2023/07/06 06:08:32;;;;;;;5.68;1.60;;;;;;;-144.47;55.36;52597.91;5042690;28;20039;-70
2023/07/06 06:11:00;;;;;;;5.82;1.48;;;;;;;-144.47;55.42;52597.91;5041840;28;20025;-65
2023/07/06 06:13:30;;;;;;;4.53;1.27;;;;;;;-144.47;55.52;52599.88;5031721;28;20108;-67
2023/07/06 06:15:57;;;;;;;4.38;1.80;;;;;;;-144.47;55.33;52584.00;5053630;28;20021;-69
2023/07/06 06:18:22;;;;;;;8.18;1.70;;;;;;;-144.47;55.28;52607.84;5062733;28;20387;-68
2023/07/06 06:20:48;;;;;;;3.65;1.50;;;;;;;-144.47;54.40;52576.06;5049288;28;20479;-70
2023/07/06 06:23:15;;;;;;;6.20;2.00;;;;;;;-144.47;54.78;52595.91;5053909;28;20158;-69
2023/07/06 06:25:41;;;;;;;8.20;1.80;;;;;;;-144.47;54.14;52589.97;5056834;28;20588;-68
2023/07/06 06:28:09;;;;;;;6.95;1.50;;;;;;;-144.47;53.86;52593.94;5062478;28;20470;-66
2023/07/06 06:30:35;;;;;;;9.00;1.90;;;;;;;-144.47;53.18;52625.72;5064580;23;20025;-66
2023/07/06 06:33:01;;;;;;;3.20;1.33;;;;;;;-144.47;53.53;52587.97;5068034;28;20033;-65
2023/07/06 06:35:28;;;;;;;9.15;1.98;;;;;;;-144.47;53.37;52593.94;5068420;28;20629;-68
2023/07/06 06:37:55;;;;;;;11.98;2.22;;;;;;;-144.47;53.41;52585.97;5069980;28;20036;-70
2023/07/06 06:40:21;;;;;;;8.60;1.98;;;;;;;-144.47;53.04;52593.94;5069911;28;20012;-68
2023/07/06 06:42:48;;;;;;;3.50;1.13;;;;;;;-144.47;52.44;52562.16;5067956;28;20547;-65
2023/07/06 06:45:15;;;;;;;5.47;1.63;;;;;;;-144.47;52.50;52599.88;5047914;28;20169;-67
2023/07/06 06:47:40;;;;;;;7.32;1.80;;;;;;;-144.47;52.36;52584.00;5059487;28;20032;-69
2023/07/06 06:50:08;;;;;;;4.90;1.65;;;;;;;-144.47;52.42;52587.97;5052938;28;20031;-67
2023/07/06 06:52:34;;;;;;;4.53;1.15;;;;;;;-144.47;52.42;52589.97;5055545;28;20039;-67
2023/07/06 06:54:59;;;;;;;3.53;1.10;;;;;;;-144.47;51.47;52599.88;5045951;28;20092;-68
2023/07/06 06:57:25;;;;;;;6.47;1.95;;;;;;;-144.47;51.88;52580.03;5069772;28;20119;-69
2023/07/06 06:59:53;;;;;;;3.10;1.23;;;;;;;-144.47;52.02;52582.00;5081697;28;20048;-67
2023/07/06 07:02:19;;;;;;;8.18;1.73;;;;;;;-144.47;51.62;52587.97;5067628;28;20107;-71
2023/07/06 07:04:44;;;;;;;3.22;1.20;;;;;;;-144.47;51.59;52589.97;5065331;28;20115;-70
2023/07/06 07:07:10;;;;;;;3.90;1.55;;;;;;;-144.47;50.67;52589.97;5055714;28;20167;-68
2023/07/06 07:09:36;;;;;;;5.75;1.63;;;;;;;-144.47;50.98;52607.84;5079279;28;20069;-67
2023/07/06 07:12:02;;;;;;;7.78;1.40;;;;;;;-144.47;50.12;52589.97;5064456;28;20530;-69
2023/07/06 07:14:29;;;;;;;5.72;1.35;;;;;;;-144.47;50.05;52595.91;5077245;28;20024;-67
2023/07/06 07:16:55;;;;;;;3.35;1.08;;;;;;;-144.47;49.73;52607.84;5078707;28;20092;-69
2023/07/06 07:19:21;;;;;;;5.55;1.50;;;;;;;-144.47;49.90;52562.16;5036730;28;20028;-66
2023/07/06 07:21:47;;;;;;;4.85;1.67;;;;;;;-144.47;49.47;52585.97;5055952;28;20032;-68
2023/07/06 07:24:13;;;;;;;6.35;2.05;;;;;;;-144.47;49.36;52615.78;5059245;28;20051;-69
2023/07/06 07:26:38;;;;;;;4.22;1.25;;;;;;;-144.47;49.04;52599.88;5076902;28;20085;-67
2023/07/06 07:29:04;;;;;;;5.75;1.45;;;;;;;-144.47;49.20;52584.00;5050704;28;20041;-71
2023/07/06 07:31:30;;;;;;;2.55;1.27;;;;;;;-144.47;49.40;52587.97;5046062;28;20460;-69
2023/07/06 07:33:55;;;;;;;8.13;1.70;;;;;;;-144.47;49.33;52597.91;5051474;28;20021;-68
2023/07/06 07:36:22;;;;;;;9.65;1.45;;;;;;;-144.47;49.19;52585.97;5053423;28;20067;-70
2023/07/06 07:38:49;;;;;;;5.55;1.92;;;;;;;-144.47;48.24;52570.09;5077971;28;20485;-66
2023/07/06 07:41:19;;;;;;;4.10;1.40;;;;;;;-144.47;48.31;52556.19;5071640;28;20027;-69
2023/07/06 07:43:47;;;;;;;3.70;1.50;;;;;;;-144.47;48.22;52582.00;5061484;28;20759;-68
2023/07/06 07:46:14;;;;;;;4.82;1.50;;;;;;;-144.47;48.54;52558.19;5074647;28;20411;-68
2023/07/06 07:48:49;;;;;;;3.60;1.58;;;;;;;-144.47;48.69;52589.97;5090844;28;20028;-68
2023/07/06 07:51:23;;;;;;;4.43;1.48;;;;;;;-144.47;47.70;52574.06;5081535;28;20028;-67
2023/07/06 07:53:52;;;;;;;4.57;1.50;;;;;;;-144.47;46.63;52562.16;5060599;28;20029;-69
2023/07/06 07:56:19;;;;;;;3.60;1.15;;;;;;;-144.47;45.90;52578.03;5083448;28;20039;-68
2023/07/06 07:58:48;;;;;;;3.05;1.30;;;;;;;-144.47;46.02;52605.84;5082354;28;20063;-69
2023/07/06 08:01:16;;;;;;;4.90;1.52;;;;;;;-144.47;45.45;52585.97;5069944;28;20540;-70
2023/07/06 08:03:42;;;;;;;3.75;1.50;;;;;;;-144.47;45.51;52591.94;5055947;28;20037;-66
2023/07/06 08:06:11;;;;;;;2.85;1.00;;;;;;;-144.47;44.91;52572.09;5076792;28;20028;-68
2023/07/06 08:08:38;;;;;;;2.88;1.30;;;;;;;-144.47;45.15;52591.94;5076997;28;20056;-68
2023/07/06 08:11:07;;;;;;;8.20;1.58;;;;;;;-144.47;44.58;52570.09;5056692;28;20041;-65
2023/07/06 08:13:33;;;;;;;2.42;1.00;;;;;;;-144.47;44.02;52597.91;5055200;28;20036;-66
2023/07/06 08:16:00;;;;;;;4.60;1.60;;;;;;;-144.47;44.21;52597.91;5081195;28;20036;-68
2023/07/06 08:18:25;;;;;;;7.65;1.60;;;;;;;-144.47;43.92;52593.94;5075735;28;20113;-68
2023/07/06 08:20:53;;;;;;;4.45;1.40;;;;;;;-144.47;43.92;52609.81;5043547;28;20020;-68
2023/07/06 08:23:20;;;;;;;4.00;1.40;;;;;;;-144.47;44.00;52570.09;5077725;28;20032;-67
2023/07/06 08:25:47;;;;;;;6.78;1.40;;;;;;;-144.47;43.59;52593.94;5051519;28;20088;-67
2023/07/06 08:28:12;;;;;;;3.13;1.08;;;;;;;-144.47;43.53;52597.91;5070915;28;20662;-68
2023/07/06 08:30:40;;;;;;;5.93;1.30;;;;;;;-144.47;43.00;52582.00;5063327;28;20076;-67
2023/07/06 08:33:07;;;;;;;7.35;2.33;;;;;;;-144.47;42.85;52578.03;5064798;28;20050;-68
2023/07/06 08:35:33;;;;;;;17.73;1.63;;;;;;;-144.47;42.32;52578.03;5079608;28;20035;-68
2023/07/06 08:38:03;;;;;;;4.88;1.17;;;;;;;-144.47;41.83;52582.00;5071108;28;20020;-69
2023/07/06 08:40:30;;;;;;;4.82;1.20;;;;;;;-144.47;41.31;52574.06;5071991;28;20027;-67
2023/07/06 08:42:57;;;;;;;6.15;1.90;;;;;;;-144.47;39.55;52570.09;5057696;28;20592;-67
2023/07/06 08:45:44;;;;;;;5.80;1.48;;;;;;;-144.47;39.99;52601.88;5088644;28;20149;-68
2023/07/06 08:48:13;;;;;;;4.68;1.50;;;;;;;-144.47;39.43;52591.94;5087768;28;20111;-66
2023/07/06 08:50:39;;;;;;;;;;;;;;;-144.47;39.72;52570.09;5089444;28;20513;-67
2023/07/06 08:53:05;;;;;;;5.72;1.30;;;;;;;-144.47;39.77;52562.16;5068789;28;20345;-68
2023/07/06 08:55:31;;;;;;;5.32;1.58;;;;;;;-144.47;39.24;52568.13;5068494;28;20029;-65
2023/07/06 08:57:57;;;;;;;4.50;1.23;;;;;;;-144.47;39.48;52597.91;5048704;28;20028;-70
2023/07/06 09:00:25;;;;;;;4.50;1.10;;;;;;;-144.47;39.17;52601.88;5061304;28;20020;-71
2023/07/06 09:02:57;;;;;;;5.00;1.40;;;;;;;-144.47;39.49;52601.88;5081652;28;20033;-68
2023/07/06 09:05:31;;;;;;;3.47;1.20;;;;;;;-144.47;39.54;52587.97;5065817;28;20115;-66
2023/07/06 09:07:57;;;;;;;3.17;1.13;;;;;;;-144.47;39.56;52574.06;5064683;28;20020;-68
2023/07/06 09:10:23;;;;;;;4.15;1.20;;;;;;;-144.47;38.93;52574.06;5073300;28;20397;-66
2023/07/06 09:12:50;;;;;;;3.63;1.30;;;;;;;-144.47;39.29;52591.94;5068403;28;20036;-70
2023/07/06 09:15:25;;;;;;;3.60;1.27;;;;;;;-144.47;39.41;52591.94;5065991;28;20107;-69
2023/07/06 09:17:50;;;;;;;4.57;2.00;;;;;;;-144.47;39.21;52589.97;5048407;28;20060;-68
2023/07/06 09:20:18;;;;;;;5.70;1.58;;;;;;;-144.47;39.36;52584.00;5050290;28;20044;-67
2023/07/06 09:22:45;;;;;;;3.53;1.10;;;;;;;-144.47;39.74;52576.06;5068429;28;20044;-65
2023/07/06 09:25:26;;;;;;;3.42;1.50;;;;;;;-144.47;40.11;52607.84;5066979;28;20334;-68
2023/07/06 09:27:51;;;;;;;7.85;1.20;;;;;;;-144.47;39.56;52556.19;5068069;28;20024;-68
2023/07/06 09:30:36;;;;;;;5.13;1.50;;;;;;;-144.47;38.54;52587.97;5049664;28;20043;-66
2023/07/06 09:33:25;;;;;;;4.32;1.63;;;;;;;-144.47;38.35;52605.84;5042659;28;20021;-67
2023/07/06 09:35:53;;;;;;;6.15;1.30;;;;;;;-144.47;37.56;52607.84;5079753;28;20047;-67
2023/07/06 09:38:19;;;;;;;3.80;1.00;;;;;;;-144.47;37.90;52599.88;5068408;28;20032;-67
2023/07/06 09:40:46;;;;;;;4.60;1.33;;;;;;;-144.47;37.88;52589.97;5067504;28;20108;-68
2023/07/06 09:43:29;;;;;;;6.80;1.40;;;;;;;-144.47;37.90;52576.06;5058794;28;20050;-68
2023/07/06 09:45:58;;;;;;;3.13;1.40;;;;;;;-144.47;38.22;52585.97;5086115;28;20027;-67
2023/07/06 09:48:23;;;;;;;3.70;1.27;;;;;;;-144.47;38.00;52582.00;5063917;28;20047;-69
2023/07/06 09:50:52;;;;;;;2.72;1.10;;;;;;;-144.47;38.19;52570.09;5055233;28;20020;-68
2023/07/06 09:53:25;;;;;;;7.70;1.42;;;;;;;-144.47;37.95;52597.91;5074666;28;20055;-65
2023/07/06 09:55:50;;;;;;;3.38;1.50;;;;;;;-144.47;37.48;52601.88;5056391;28;20542;-68
2023/07/06 09:58:23;;;;;;;2.90;1.20;;;;;;;-144.47;36.73;52613.78;5087614;28;20016;-65
2023/07/06 10:00:56;;;;;;;4.60;1.38;;;;;;;-144.47;37.76;52601.88;5074049;28;20043;-70
2023/07/06 10:03:41;;;;;;;4.35;1.25;;;;;;;-144.47;38.11;52607.84;5087292;28;20035;-68
2023/07/06 10:06:27;;;;;;;6.20;1.58;;;;;;;-144.47;38.04;52582.00;5053977;28;20099;-66
2023/07/06 10:09:08;;;;;;;4.65;1.50;;;;;;;-144.47;37.48;52609.81;5070268;28;20474;-67
2023/07/06 10:11:45;;;;;;;7.35;1.63;;;;;;;-144.47;38.15;52597.91;5063709;28;20025;-67
2023/07/06 10:14:23;;;;;;;7.60;1.55;;;;;;;-144.47;38.15;52603.84;5070269;28;20043;-68
2023/07/06 10:16:56;;;;;;;3.65;1.40;;;;;;;-144.47;37.55;52587.97;5073147;28;20155;-65
2023/07/06 10:19:32;;;;;;;6.68;1.63;;;;;;;-144.47;37.36;52591.94;5076145;28;20151;-68
2023/07/06 10:22:10;;;;;;;3.30;1.20;;;;;;;-144.47;36.33;52603.84;5060964;28;20023;-66
2023/07/06 10:24:48;;;;;;;3.88;1.40;;;;;;;-144.47;36.19;52595.91;5059673;28;20020;-66
2023/07/06 10:27:22;;;;;;;3.85;1.40;;;;;;;-144.47;35.99;52576.06;5048119;28;20029;-68
2023/07/06 10:29:54;;;;;;;4.22;1.20;;;;;;;-144.47;35.89;52591.94;5060644;28;20020;-69
2023/07/06 10:32:27;;;;;;;5.50;1.30;;;;;;;-144.47;36.21;52611.81;5049695;28;20033;-67
2023/07/06 10:35:04;;;;;;;5.00;1.10;;;;;;;-144.47;36.37;52621.72;5065770;28;20082;-70
2023/07/06 10:37:31;;;;;;;3.65;1.30;;;;;;;-144.47;36.38;52601.88;5068601;28;20628;-68
2023/07/06 10:40:04;;;;;;;3.25;1.42;;;;;;;-144.47;36.37;52601.88;5065930;28;20028;-68
2023/07/06 10:42:35;;;;;;;2.42;1.20;;;;;;;-144.47;36.12;52589.97;5054381;28;20033;-68
2023/07/06 10:45:02;;;;;;;3.38;1.33;;;;;;;-144.47;36.13;52591.94;5072086;28;20037;-66
2023/07/06 10:47:44;;;;;;;5.45;1.50;;;;;;;-144.47;35.80;52584.00;5087181;28;20115;-66
2023/07/06 10:50:52;;;;;;;3.67;1.33;;;;;;;-144.47;36.01;52584.00;5069390;28;20193;-67
2023/07/06 10:53:34;;;;;;;4.75;1.40;;;;;;;-144.47;35.93;52605.84;5055641;28;20040;-67
2023/07/06 10:56:02;;;;;;;2.78;1.13;;;;;;;-144.47;35.71;52605.84;5069625;28;20032;-67
2023/07/06 10:58:36;;;;;;;10.40;1.80;;;;;;;-144.47;35.54;52605.84;5068776;28;20032;-67
2023/07/06 11:01:09;;;;;;;3.58;1.25;;;;;;;-144.47;35.22;52611.81;5071816;28;20507;-69
2023/07/06 11:03:36;;;;;;;3.80;1.40;;;;;;;-144.47;35.39;52607.84;5072818;28;20040;-67
2023/07/06 11:06:11;;;;;;;6.75;1.40;;;;;;;-144.47;35.58;52615.78;5053011;28;20024;-69
2023/07/06 11:09:02;;;;;;;7.63;1.42;;;;;;;-144.47;35.07;52589.97;5079775;28;20133;-68
2023/07/06 11:11:28;;;;;;;2.97;1.23;;;;;;;-144.47;35.36;52639.59;5080601;28;20027;-65
2023/07/06 11:13:54;;;;;;;4.72;1.40;;;;;;;-144.47;35.58;52615.78;5081173;28;20083;-66
2023/07/06 11:16:26;;;;;;;8.75;1.30;;;;;;;-144.47;34.96;52623.72;5071339;28;20511;-69
2023/07/06 11:18:55;;;;;;;3.53;1.25;;;;;;;-144.47;35.30;52613.78;5057980;28;20032;-66
2023/07/06 11:21:36;;;;;;;5.32;1.52;;;;;;;-144.47;34.60;52617.75;5039995;28;20036;-67
2023/07/06 11:24:07;;;;;;;3.63;1.42;;;;;;;-144.47;34.49;52599.88;5056656;28;20044;-68
2023/07/06 11:26:54;;;;;;;2.67;1.17;;;;;;;-144.47;35.24;52599.88;5069156;28;20028;-68